Pagrindinis puslapis
METAR-TAF:

METAR-TAF

Oro uostai :

Altenstadt, Vokietija

platuma: 47-50N, ilguma: 010-52E, Aukštis: 739 m

Dabartinis oras

Ataskaita buvo paskelbta 12 minutes, ne 20:20 UTC
Vėjas 3 kt iš Vakarų/Pietvakarių
Temperatūra 1°C
Drėgmė 100%
Slėgis 1014 hPa

METAR: ETHA 272020Z AUTO 24003KT //// // ////// 01/01 Q1014 ///

Laikas: 21:32 (20:32 UTC)

Prognozė

Ataskaita buvo paskelbta 9 valandos ir 12 minutes, ne 11:20 UTC
Prognozė galioja nuo 27 metu 12 UTC su 27 metu 21 UTC
Vėjas 8 kt iš Vakarų
Matomumas 10 km arba daugiau
Išsisklaidę debesys ne aukštis 3000 ft
Su prošvaistėmis ne aukštis 5000 ft
Su prošvaistėmis ne aukštis 8000 ft
Tapsmas
nuo 27 metu 14 UTC su 27 metu 16 UTC
Vėjas 5 kt iš Pietvakarių
Matomumas 10 km arba daugiau
Mažai debesys ne aukštis 3000 ft
Išsisklaidę debesys ne aukštis 5000 ft

TAF: ETHA 271120Z 2712/2721 27008KT 9999 NSW SCT030 BKN050 BKN080 BECMG 2714/2716 22005KT 9999 NSW FEW030 SCT050

Orai ataskaitas ir orų prognozės (METAR, TAF).

turimą stotys yra geltonos ir raudonos taškus žemėlapyje.

Perkelti pele per norėdami pamatyti stoties vardą.

Tada spustelėkite, norėdami matyti oro stebėjimo ir prognozės.

Norėdami pakeisti žemėlapį: spustelėkite ant žalios mygtukų su juodo kryžiaus žemyn,; žalią mygtuką su brūkšneliu, jei norite nutolinti; arba žalių rodyklių gretimoms žemėlapius.


METAR-TAF: